createdAt,value
2022-11-20T00:01:38.806Z,22.60
2022-11-20T00:04:07.801Z,22.30
2022-11-20T00:06:36.288Z,20.10
2022-11-20T00:09:06.631Z,23.50
2022-11-20T00:11:35.145Z,22.60
2022-11-20T00:14:04.050Z,21.30
2022-11-20T00:16:34.131Z,20.00
2022-11-20T00:19:02.851Z,26.10
2022-11-20T00:21:32.003Z,20.70
2022-11-20T00:24:00.743Z,22.20
2022-11-20T00:26:29.922Z,20.80
2022-11-20T00:29:02.620Z,19.20
2022-11-20T00:31:31.919Z,18.00
2022-11-20T00:34:00.427Z,16.90
2022-11-20T00:36:33.065Z,15.40
2022-11-20T00:39:01.557Z,16.00
2022-11-20T00:41:31.290Z,18.20
2022-11-20T00:46:29.887Z,17.20
2022-11-20T00:48:58.947Z,16.10
2022-11-20T00:51:29.156Z,16.80
2022-11-20T00:54:01.291Z,17.40
2022-11-20T00:56:30.129Z,19.10
2022-11-20T00:59:02.302Z,16.10
2022-11-20T01:01:31.681Z,18.40
2022-11-20T01:04:01.817Z,16.70
2022-11-20T01:06:36.927Z,18.20
2022-11-20T01:09:15.746Z,19.50
2022-11-20T01:11:46.071Z,17.60
2022-11-20T01:14:19.050Z,16.70
2022-11-20T01:16:51.708Z,17.80
2022-11-20T01:19:24.039Z,15.20
2022-11-20T01:21:55.763Z,15.60
2022-11-20T01:24:24.441Z,13.80
2022-11-20T01:26:53.470Z,15.60
2022-11-20T01:29:25.487Z,15.50
2022-11-20T01:31:54.729Z,16.70
2022-11-20T01:34:24.013Z,14.50
2022-11-20T01:36:54.182Z,13.80
2022-11-20T01:39:27.446Z,14.60
2022-11-20T01:42:15.652Z,13.80
2022-11-20T01:45:01.257Z,12.70
2022-11-20T01:47:47.656Z,12.80
2022-11-20T01:50:35.168Z,10.70
2022-11-20T01:53:12.181Z,10.80
2022-11-20T01:55:49.639Z,9.60
2022-11-20T01:58:22.861Z,10.40
2022-11-20T02:00:51.511Z,9.90
2022-11-20T02:03:21.839Z,11.00
2022-11-20T02:05:56.942Z,9.40
2022-11-20T02:08:25.656Z,8.90
2022-11-20T02:10:54.343Z,8.20
2022-11-20T02:13:41.922Z,7.80
2022-11-20T02:16:48.446Z,8.00
2022-11-20T02:19:24.459Z,7.60
2022-11-20T02:22:08.791Z,8.00
2022-11-20T02:24:37.681Z,7.70
2022-11-20T02:27:15.446Z,8.20
2022-11-20T02:29:56.722Z,8.50
2022-11-20T02:32:38.724Z,7.90
2022-11-20T02:35:19.481Z,7.90
2022-11-20T02:37:54.172Z,8.10
2022-11-20T02:40:23.315Z,9.70
2022-11-20T02:42:59.070Z,7.70
2022-11-20T02:45:27.851Z,8.80
2022-11-20T02:47:56.579Z,9.50
2022-11-20T02:50:25.324Z,8.40
2022-11-20T02:52:54.111Z,8.50
2022-11-20T02:55:22.799Z,7.80
2022-11-20T02:57:51.586Z,6.90
2022-11-20T03:00:20.580Z,7.20
2022-11-20T03:02:49.218Z,6.20
2022-11-20T03:05:17.664Z,7.00
2022-11-20T03:07:46.538Z,7.30
2022-11-20T03:10:15.321Z,5.40
2022-11-20T03:12:44.249Z,5.50
2022-11-20T03:15:13.001Z,5.90
2022-11-20T03:17:41.685Z,6.80
2022-11-20T03:20:11.138Z,6.20
2022-11-20T03:22:39.775Z,5.80
2022-11-20T03:25:08.635Z,5.30
2022-11-20T03:27:37.246Z,6.20
2022-11-20T03:30:07.192Z,6.80
2022-11-20T03:32:35.743Z,7.10
2022-11-20T03:35:05.021Z,7.10
2022-11-20T03:37:33.495Z,7.70
2022-11-20T03:40:02.325Z,7.40
2022-11-20T03:42:49.165Z,6.80
2022-11-20T03:45:19.553Z,7.40
2022-11-20T03:47:48.053Z,8.50
2022-11-20T03:50:16.595Z,8.60
2022-11-20T03:52:45.097Z,9.00
2022-11-20T03:55:13.754Z,7.50
2022-11-20T03:57:42.369Z,8.90
2022-11-20T04:00:12.550Z,9.10
2022-11-20T04:02:41.167Z,10.10
2022-11-20T04:05:09.852Z,9.20
2022-11-20T04:07:38.655Z,9.90
2022-11-20T04:10:08.427Z,9.40
2022-11-20T04:12:36.968Z,10.30
2022-11-20T04:15:05.937Z,11.60
2022-11-20T04:17:34.509Z,11.70
2022-11-20T04:20:04.093Z,11.70
2022-11-20T04:22:32.801Z,12.50
2022-11-20T04:25:01.488Z,13.70
2022-11-20T04:27:32.186Z,9.60
2022-11-20T04:30:00.732Z,11.00
2022-11-20T04:32:29.591Z,9.20
2022-11-20T04:34:58.177Z,10.30
2022-11-20T04:37:27.070Z,12.00
2022-11-20T04:39:55.970Z,10.70
2022-11-20T04:42:30.682Z,11.10
2022-11-20T04:44:59.505Z,12.40
2022-11-20T04:47:28.208Z,11.20
2022-11-20T04:49:57.070Z,11.40
2022-11-20T04:52:25.735Z,10.50
2022-11-20T04:54:54.630Z,10.50
2022-11-20T04:57:23.239Z,10.80
2022-11-20T04:59:51.798Z,9.60
2022-11-20T05:02:20.739Z,11.50
2022-11-20T05:04:49.363Z,10.10
2022-11-20T05:07:18.458Z,10.50
2022-11-20T05:09:47.146Z,11.40
2022-11-20T05:12:15.830Z,10.20
2022-11-20T05:14:45.027Z,9.60
2022-11-20T05:17:13.953Z,9.80
2022-11-20T05:19:42.609Z,10.30
2022-11-20T05:22:11.186Z,9.40
2022-11-20T05:24:39.754Z,8.70
2022-11-20T05:27:08.419Z,10.70
2022-11-20T05:29:37.040Z,10.30
2022-11-20T05:32:08.625Z,9.40
2022-11-20T05:34:37.385Z,11.60
2022-11-20T05:37:05.896Z,8.80
2022-11-20T05:39:34.383Z,11.10
2022-11-20T05:42:21.767Z,10.20
2022-11-20T05:44:50.553Z,9.50
2022-11-20T05:47:19.239Z,10.40
2022-11-20T05:49:47.831Z,9.80
2022-11-20T05:52:16.313Z,11.50
2022-11-20T05:54:44.991Z,11.70
2022-11-20T05:57:13.734Z,8.80
2022-11-20T05:59:42.531Z,11.40
2022-11-20T06:02:11.444Z,10.40
2022-11-20T06:04:41.470Z,10.70
2022-11-20T06:07:10.137Z,11.40
2022-11-20T06:09:38.593Z,10.50
2022-11-20T06:12:08.204Z,10.50
2022-11-20T06:14:38.737Z,10.70
2022-11-20T06:17:07.178Z,10.40
2022-11-20T06:19:35.709Z,11.00
2022-11-20T06:22:04.286Z,9.60
2022-11-20T06:24:32.806Z,8.50
2022-11-20T06:27:01.324Z,11.50
2022-11-20T06:29:33.940Z,9.90
2022-11-20T06:32:03.017Z,8.80
2022-11-20T06:34:31.531Z,8.80
2022-11-20T06:37:00.028Z,8.20
2022-11-20T06:39:28.612Z,8.90
2022-11-20T06:41:59.071Z,9.00
2022-11-20T06:44:28.150Z,8.30
2022-11-20T06:46:56.847Z,8.60
2022-11-20T06:49:26.302Z,9.80
2022-11-20T06:51:54.894Z,8.40
2022-11-20T06:54:23.504Z,8.90
2022-11-20T06:56:51.934Z,9.40
2022-11-20T06:59:20.837Z,9.00
2022-11-20T07:01:49.638Z,8.70
2022-11-20T07:04:18.203Z,8.10
2022-11-20T07:06:46.813Z,9.00
2022-11-20T07:09:15.423Z,8.30
2022-11-20T07:11:43.912Z,9.40
2022-11-20T07:14:12.379Z,9.30
2022-11-20T07:16:41.074Z,9.30
2022-11-20T07:19:09.522Z,9.70
2022-11-20T07:21:38.031Z,8.50
2022-11-20T07:24:06.691Z,7.90
2022-11-20T07:26:35.178Z,7.20
2022-11-20T07:29:03.646Z,8.80
2022-11-20T07:31:32.154Z,8.40
2022-11-20T07:34:00.682Z,8.40
2022-11-20T07:36:29.105Z,8.70
2022-11-20T07:38:57.669Z,10.10
2022-11-20T07:41:26.257Z,9.60
2022-11-20T07:43:54.718Z,12.00
2022-11-20T07:46:23.218Z,11.00
2022-11-20T07:48:51.794Z,9.40
2022-11-20T07:51:20.969Z,8.90
2022-11-20T07:53:53.351Z,9.80
2022-11-20T07:56:21.801Z,11.20
2022-11-20T07:58:50.289Z,10.40
2022-11-20T08:01:18.949Z,13.40
2022-11-20T08:03:47.593Z,12.60
2022-11-20T08:06:16.108Z,13.10
2022-11-20T08:08:44.609Z,11.10
2022-11-20T08:11:31.998Z,12.70
2022-11-20T08:14:15.861Z,10.70
2022-11-20T08:16:51.111Z,9.30
2022-11-20T08:19:20.877Z,9.30
2022-11-20T08:21:49.745Z,12.80
2022-11-20T08:24:18.317Z,12.70
2022-11-20T08:26:46.969Z,14.70
2022-11-20T08:29:16.064Z,15.30
2022-11-20T08:31:44.567Z,14.90
2022-11-20T08:34:33.021Z,16.70
2022-11-20T08:37:04.122Z,15.80
2022-11-20T08:39:32.529Z,17.80
2022-11-20T08:42:01.010Z,17.80
2022-11-20T08:44:29.507Z,17.80
2022-11-20T08:46:58.191Z,16.20
2022-11-20T08:49:26.717Z,18.10
2022-11-20T08:51:56.437Z,14.50
2022-11-20T08:56:53.724Z,12.50
2022-11-20T09:00:04.405Z,12.50
2022-11-20T09:02:10.750Z,12.10
2022-11-20T09:04:39.273Z,11.50
2022-11-20T09:07:07.936Z,12.50
2022-11-20T09:09:36.478Z,12.20
2022-11-20T09:12:05.346Z,12.70
2022-11-20T09:14:34.856Z,12.60
2022-11-20T09:17:03.465Z,13.80
2022-11-20T09:19:36.317Z,12.30
2022-11-20T09:22:05.151Z,14.60
2022-11-20T09:24:33.653Z,13.40
2022-11-20T09:27:06.346Z,14.80
2022-11-20T09:29:34.964Z,15.30
2022-11-20T09:32:03.652Z,15.70
2022-11-20T09:34:32.937Z,17.80
2022-11-20T09:37:04.515Z,17.20
2022-11-20T09:39:40.182Z,18.10
2022-11-20T09:42:31.966Z,20.00
2022-11-20T09:45:10.369Z,20.40
2022-11-20T09:48:15.934Z,20.30
2022-11-20T09:50:51.182Z,23.10
2022-11-20T09:53:49.650Z,23.10
2022-11-20T09:56:22.547Z,24.00
2022-11-20T09:58:58.906Z,19.80
2022-11-20T10:01:37.542Z,19.80
2022-11-20T10:04:12.653Z,18.30
2022-11-20T10:07:31.774Z,16.90
2022-11-20T10:09:57.750Z,16.80
2022-11-20T10:13:06.826Z,16.30
2022-11-20T10:16:05.102Z,17.90
2022-11-20T10:18:45.977Z,17.80
2022-11-20T10:21:29.941Z,18.10
2022-11-20T10:24:42.584Z,16.30
2022-11-20T10:27:41.713Z,16.00
2022-11-20T10:30:17.104Z,15.90
2022-11-20T10:32:52.268Z,18.50
2022-11-20T10:35:45.525Z,19.50
2022-11-20T10:38:34.384Z,20.50
2022-11-20T10:41:57.420Z,20.60
2022-11-20T10:44:52.482Z,23.50
2022-11-20T10:47:27.014Z,23.90
2022-11-20T10:50:05.315Z,24.00
2022-11-20T10:53:30.773Z,24.60
2022-11-20T10:56:12.982Z,24.80
2022-11-20T10:59:18.577Z,22.10
2022-11-20T11:01:47.245Z,22.40
2022-11-20T11:04:38.354Z,21.90
2022-11-20T11:07:13.750Z,18.90
2022-11-20T11:09:53.398Z,17.40
2022-11-20T11:14:58.864Z,16.30
2022-11-20T11:17:32.034Z,17.50
2022-11-20T11:20:12.610Z,15.90
2022-11-20T11:22:57.767Z,19.10
2022-11-20T11:25:35.042Z,17.20
2022-11-20T11:28:06.501Z,16.50
2022-11-20T11:30:46.136Z,15.50
2022-11-20T11:36:00.323Z,17.50
2022-11-20T11:38:40.941Z,17.20
2022-11-20T11:41:25.089Z,17.10
2022-11-20T11:44:19.949Z,16.30
2022-11-20T11:46:57.921Z,18.20
2022-11-20T11:49:26.583Z,19.00
2022-11-20T11:52:16.357Z,17.60
2022-11-20T11:54:45.008Z,18.50
2022-11-20T11:57:38.447Z,18.60
2022-11-20T12:00:22.901Z,19.90
2022-11-20T12:03:23.213Z,19.80
2022-11-20T12:06:00.009Z,19.30
2022-11-20T12:08:45.001Z,19.50
2022-11-20T12:11:30.702Z,16.30
2022-11-20T12:14:39.910Z,17.10
2022-11-20T12:17:14.711Z,18.70
2022-11-20T12:19:43.301Z,18.40
2022-11-20T12:22:26.799Z,18.80
2022-11-20T12:25:37.872Z,17.70
2022-11-20T12:28:24.961Z,18.60
2022-11-20T12:31:14.441Z,16.50
2022-11-20T12:34:10.313Z,17.60
2022-11-20T12:37:12.869Z,17.90
2022-11-20T12:39:43.815Z,18.40
2022-11-20T12:42:36.866Z,18.60
2022-11-20T12:45:33.529Z,20.40
2022-11-20T12:48:20.729Z,21.40
2022-11-20T12:51:15.805Z,21.60
2022-11-20T12:54:48.517Z,22.30
2022-11-20T12:57:46.228Z,19.80
2022-11-20T13:00:23.541Z,19.70
2022-11-20T13:03:10.812Z,23.90
2022-11-20T13:06:19.848Z,21.60
2022-11-20T13:08:57.361Z,20.90
2022-11-20T13:11:52.491Z,20.30
2022-11-20T13:14:48.645Z,20.50
2022-11-20T13:17:39.504Z,16.60
2022-11-20T13:20:15.669Z,19.70
2022-11-20T13:22:49.170Z,21.40
2022-11-20T13:25:28.595Z,23.20
2022-11-20T13:28:02.153Z,20.70
2022-11-20T13:30:38.823Z,26.70
2022-11-20T13:33:24.713Z,18.80
2022-11-20T13:36:28.741Z,21.30
2022-11-20T13:38:57.830Z,21.50
2022-11-20T13:41:39.109Z,21.40
2022-11-20T13:44:23.464Z,21.40
2022-11-20T13:46:52.217Z,22.10
2022-11-20T13:49:49.381Z,22.90
2022-11-20T13:53:04.826Z,19.70
2022-11-20T13:55:36.469Z,21.50
2022-11-20T13:58:23.767Z,17.20
2022-11-20T14:01:19.524Z,20.00
2022-11-20T14:04:05.660Z,23.30
2022-11-20T14:06:50.432Z,20.40
2022-11-20T14:09:33.454Z,19.70
2022-11-20T14:12:04.495Z,21.70
2022-11-20T14:14:34.735Z,20.60
2022-11-20T14:17:09.462Z,21.10
2022-11-20T14:19:47.941Z,20.60
2022-11-20T14:22:26.065Z,20.20
2022-11-20T14:25:13.730Z,22.80
2022-11-20T14:27:44.730Z,19.90
2022-11-20T14:30:23.858Z,19.40
2022-11-20T14:32:55.264Z,21.20
2022-11-20T14:35:30.566Z,22.20
2022-11-20T14:37:59.727Z,17.60
2022-11-20T14:40:37.329Z,20.40
2022-11-20T14:43:29.998Z,22.20
2022-11-20T14:46:08.513Z,22.70
2022-11-20T14:48:43.208Z,22.00
2022-11-20T14:51:35.037Z,20.50
2022-11-20T14:54:18.360Z,24.90
2022-11-20T14:57:02.602Z,20.30
2022-11-20T14:59:35.328Z,17.60
2022-11-20T15:02:10.039Z,19.60
2022-11-20T15:04:58.857Z,18.90
2022-11-20T15:07:46.976Z,22.40
2022-11-20T15:10:28.588Z,18.90
2022-11-20T15:13:40.061Z,21.70
2022-11-20T15:16:22.978Z,26.30
2022-11-20T15:18:52.408Z,20.90
2022-11-20T15:21:24.442Z,22.90
2022-11-20T15:23:53.086Z,24.70
2022-11-20T15:26:27.577Z,23.10
2022-11-20T15:28:56.316Z,22.40
2022-11-20T15:31:25.383Z,18.60
2022-11-20T15:33:54.194Z,21.60
2022-11-20T15:36:22.815Z,19.60
2022-11-20T15:38:51.428Z,20.50
2022-11-20T15:41:19.946Z,20.70
2022-11-20T15:43:48.531Z,21.50
2022-11-20T15:46:25.441Z,22.60
2022-11-20T15:48:58.170Z,21.60
2022-11-20T15:51:32.089Z,25.40
2022-11-20T15:54:01.117Z,21.80
2022-11-20T15:56:30.533Z,24.90
2022-11-20T15:58:59.170Z,22.50
2022-11-20T16:01:27.920Z,20.00
2022-11-20T16:03:56.752Z,19.70
2022-11-20T16:06:25.438Z,20.00
2022-11-20T16:08:54.029Z,21.00
2022-11-20T16:11:22.713Z,21.20
2022-11-20T16:14:09.953Z,17.00
2022-11-20T16:16:40.369Z,16.90
2022-11-20T16:19:13.778Z,15.70
2022-11-20T16:21:43.406Z,16.20
2022-11-20T16:24:15.344Z,17.30
2022-11-20T16:26:43.865Z,15.10
2022-11-20T16:29:12.555Z,16.60
2022-11-20T16:31:41.267Z,15.60
2022-11-20T16:34:12.542Z,20.20
2022-11-20T16:36:43.255Z,17.20
2022-11-20T16:39:13.023Z,21.10
2022-11-20T16:41:41.750Z,17.50
2022-11-20T16:44:11.975Z,17.60
2022-11-20T16:46:41.134Z,17.00
2022-11-20T16:49:14.437Z,18.00
2022-11-20T16:51:43.333Z,16.60
2022-11-20T16:54:16.325Z,20.20
2022-11-20T16:56:48.209Z,18.20
2022-11-20T16:59:16.888Z,22.10
2022-11-20T17:01:45.491Z,22.90
2022-11-20T17:04:14.187Z,21.80
2022-11-20T17:06:44.604Z,20.40
2022-11-20T17:09:14.033Z,21.40
2022-11-20T17:11:42.897Z,22.00
2022-11-20T17:14:12.794Z,23.00
2022-11-20T17:16:41.915Z,25.60
2022-11-20T17:19:10.509Z,32.60
2022-11-20T17:21:39.921Z,30.00
2022-11-20T17:24:14.165Z,31.50
2022-11-20T17:26:44.550Z,28.10
2022-11-20T17:29:16.232Z,28.40
2022-11-20T17:31:45.850Z,27.20
2022-11-20T17:39:16.860Z,25.00
2022-11-20T17:41:46.103Z,31.80
2022-11-20T17:44:14.825Z,29.80
2022-11-20T17:46:43.366Z,22.80
2022-11-20T17:49:11.824Z,27.00
2022-11-20T17:51:42.258Z,25.20
2022-11-20T17:54:11.345Z,30.60
2022-11-20T17:56:58.426Z,28.70
2022-11-20T17:59:26.858Z,28.00
2022-11-20T18:01:57.623Z,29.80
2022-11-20T18:04:29.709Z,28.20
2022-11-20T18:06:58.151Z,25.20
2022-11-20T18:09:26.738Z,23.50
2022-11-20T18:11:55.835Z,27.90
2022-11-20T18:14:29.404Z,25.40
2022-11-20T18:17:06.386Z,30.70
2022-11-20T18:19:44.898Z,31.20
2022-11-20T18:22:19.483Z,27.20
2022-11-20T18:24:48.179Z,22.30
2022-11-20T18:27:20.573Z,23.10
2022-11-20T18:29:52.480Z,24.50
2022-11-20T18:32:23.172Z,21.50
2022-11-20T18:34:52.133Z,22.50
2022-11-20T18:37:20.832Z,24.90
2022-11-20T18:39:50.711Z,24.00
2022-11-20T18:42:37.771Z,22.20
2022-11-20T18:45:06.868Z,21.70
2022-11-20T18:47:38.218Z,23.10
2022-11-20T18:50:09.503Z,19.50
2022-11-20T18:52:44.949Z,23.90
2022-11-20T18:55:13.708Z,28.40
2022-11-20T18:57:42.461Z,26.90
2022-11-20T19:00:11.918Z,28.40
2022-11-20T19:05:29.127Z,26.80
2022-11-20T19:07:57.605Z,24.90
2022-11-20T19:10:27.355Z,25.90
2022-11-20T19:12:56.069Z,25.00
2022-11-20T19:15:24.671Z,23.80
2022-11-20T19:17:53.492Z,23.80
2022-11-20T19:20:22.233Z,28.00
2022-11-20T19:22:51.482Z,27.10
2022-11-20T19:25:20.668Z,28.30
2022-11-20T19:27:49.234Z,26.20
2022-11-20T19:30:17.938Z,25.80
2022-11-20T19:32:46.707Z,26.20
2022-11-20T19:35:15.213Z,26.00
2022-11-20T19:37:43.948Z,26.80
2022-11-20T19:40:12.633Z,27.40
2022-11-20T19:42:41.255Z,29.10
2022-11-20T19:45:10.218Z,28.30
2022-11-20T19:48:07.175Z,28.10
2022-11-20T19:50:27.551Z,28.70
2022-11-20T19:52:58.965Z,30.10
2022-11-20T19:55:27.694Z,27.60
2022-11-20T19:57:56.786Z,27.90
2022-11-20T20:00:31.104Z,33.50
2022-11-20T20:03:01.461Z,32.80
2022-11-20T20:05:30.212Z,35.00
2022-11-20T20:07:58.796Z,30.40
2022-11-20T20:10:28.125Z,34.50
2022-11-20T20:12:57.497Z,30.50
2022-11-20T20:15:26.418Z,35.40
2022-11-20T20:17:55.509Z,33.50
2022-11-20T20:20:24.987Z,32.30
2022-11-20T20:22:53.568Z,34.00
2022-11-20T20:25:22.326Z,48.30
2022-11-20T20:27:51.077Z,32.60
2022-11-20T20:30:19.783Z,31.30
2022-11-20T20:32:53.261Z,29.40
2022-11-20T20:35:24.813Z,29.10
2022-11-20T20:37:53.468Z,34.90
2022-11-20T20:40:22.050Z,35.90
2022-11-20T20:42:50.758Z,36.40
2022-11-20T20:45:19.321Z,40.70
2022-11-20T20:47:47.900Z,31.80
2022-11-20T20:50:16.489Z,30.20
2022-11-20T20:52:45.252Z,29.20
2022-11-20T20:55:14.567Z,28.10
2022-11-20T20:57:43.195Z,27.60
2022-11-20T21:00:12.118Z,43.00
2022-11-20T21:02:40.730Z,27.20
2022-11-20T21:05:10.142Z,26.10
2022-11-20T21:07:58.513Z,26.90
2022-11-20T21:10:28.090Z,26.50
2022-11-20T21:15:30.814Z,31.10
2022-11-20T21:18:01.728Z,31.00
2022-11-20T21:20:49.428Z,32.70
2022-11-20T21:23:20.002Z,28.30
2022-11-20T21:25:49.627Z,25.50
2022-11-20T21:30:48.600Z,29.70
2022-11-20T21:33:17.592Z,31.30
2022-11-20T21:35:46.286Z,27.90
2022-11-20T21:38:16.282Z,31.90
2022-11-20T21:40:44.954Z,29.80
2022-11-20T21:43:13.403Z,24.90
2022-11-20T21:45:42.626Z,24.90
2022-11-20T21:48:11.489Z,22.20
2022-11-20T21:50:40.600Z,24.60
2022-11-20T21:53:09.611Z,27.70
2022-11-20T21:55:38.218Z,31.10
2022-11-20T21:58:06.907Z,33.30
2022-11-20T22:00:35.488Z,24.90
2022-11-20T22:03:04.234Z,27.40
2022-11-20T22:05:32.757Z,23.50
2022-11-20T22:08:02.363Z,25.70
2022-11-20T22:10:31.158Z,22.90
2022-11-20T22:13:18.884Z,24.40
2022-11-20T22:16:00.359Z,21.80
2022-11-20T22:18:29.465Z,22.30
2022-11-20T22:21:03.166Z,21.10
2022-11-20T22:23:31.753Z,20.80
2022-11-20T22:26:15.389Z,24.70
2022-11-20T22:28:50.010Z,22.50
2022-11-20T22:31:20.873Z,24.50
2022-11-20T22:33:49.737Z,24.10
2022-11-20T22:36:22.109Z,23.70
2022-11-20T22:38:51.819Z,25.90
2022-11-20T22:43:58.517Z,22.30
2022-11-20T22:46:29.858Z,22.20
2022-11-20T22:49:02.024Z,19.00
2022-11-20T22:51:36.991Z,19.20
2022-11-20T22:54:06.375Z,18.20
2022-11-20T22:56:35.388Z,18.20
2022-11-20T22:59:04.584Z,17.60
2022-11-20T23:01:37.136Z,16.90
2022-11-20T23:04:10.957Z,16.70
2022-11-20T23:06:39.626Z,16.80
2022-11-20T23:09:09.906Z,17.30
2022-11-20T23:11:39.037Z,15.10
2022-11-20T23:14:13.682Z,16.00
2022-11-20T23:16:42.559Z,16.40
2022-11-20T23:19:14.692Z,17.60
2022-11-20T23:21:43.952Z,15.00
2022-11-20T23:24:12.601Z,18.00
2022-11-20T23:26:41.686Z,31.40
2022-11-20T23:29:10.256Z,19.40
2022-11-20T23:31:38.770Z,20.20
2022-11-20T23:34:07.450Z,18.30
2022-11-20T23:36:36.337Z,17.80
2022-11-20T23:39:05.336Z,18.70
2022-11-20T23:41:33.914Z,17.20
2022-11-20T23:44:02.552Z,19.50
2022-11-20T23:46:31.282Z,19.80
2022-11-20T23:48:59.866Z,26.80
2022-11-20T23:51:28.606Z,22.80
2022-11-20T23:54:00.554Z,17.90
2022-11-20T23:56:33.193Z,19.60
2022-11-20T23:59:01.718Z,19.50
